Time,TemperatureF,DewpointF,PressureIn,WindDirection,WindDirectionDegrees,WindSpeedMPH,WindSpeedGustMPH,Humidity,HourlyPrecipIn,Conditions,Clouds,dailyrainin,SoftwareType,DateUTC
2013-05-02 00:01:00,52.4,49.8,30.38,ENE,78,12.0,15.0,91,0.00,,SKC,0.00,VWS V14.01,2013-05-02 04:01:00,
2013-05-02 00:02:00,52.4,49.8,30.38,ENE,71,10.0,15.0,91,0.00,,SKC,0.00,VWS V14.01,2013-05-02 04:02:00,
2013-05-02 00:07:00,52.3,49.8,30.38,ENE,77,13.0,14.0,91,0.00,,SKC,0.00,VWS V14.01,2013-05-02 04:07:00,
2013-05-02 00:12:00,52.3,50.0,30.38,East,98,14.0,16.0,92,0.00,,SKC,0.00,VWS V14.01,2013-05-02 04:12:00,
2013-05-02 00:17:00,52.1,49.8,30.38,East,86,14.0,17.0,92,0.00,,SKC,0.00,VWS V14.01,2013-05-02 04:17:00,
2013-05-02 00:22:00,52.2,50.0,30.38,East,80,13.0,16.0,92,0.00,,CLR,0.00,VWS V14.01,2013-05-02 04:22:00,
2013-05-02 00:27:00,51.9,49.4,30.38,East,79,12.0,17.0,91,0.00,,CLR,0.00,VWS V14.01,2013-05-02 04:27:00,
2013-05-02 00:32:00,51.9,49.7,30.38,ENE,72,12.0,14.0,92,0.00,,CLR,0.00,VWS V14.01,2013-05-02 04:32:00,
2013-05-02 00:37:00,51.9,49.7,30.39,ENE,69,10.0,13.0,92,0.00,,CLR,0.00,VWS V14.01,2013-05-02 04:37:00,
2013-05-02 00:42:00,51.8,49.5,30.39,ENE,75,10.0,13.0,92,0.00,,CLR,0.00,VWS V14.01,2013-05-02 04:42:00,
2013-05-02 00:47:00,51.7,49.5,30.39,East,80,8.0,9.0,92,0.00,,CLR,0.00,VWS V14.01,2013-05-02 04:47:00,
2013-05-02 00:52:00,51.7,49.5,30.39,ENE,67,6.0,11.0,92,0.00,,CLR,0.00,VWS V14.01,2013-05-02 04:52:00,
2013-05-02 00:57:00,51.9,49.7,30.38,ENE,71,9.0,12.0,92,0.00,,CLR,0.00,VWS V14.01,2013-05-02 04:57:00,
2013-05-02 01:02:00,51.6,49.1,30.38,East,90,12.0,13.0,91,0.00,,CLR,0.00,VWS V14.01,2013-05-02 05:02:00,
2013-05-02 01:07:00,51.6,49.4,30.38,East,83,12.0,13.0,92,0.00,,CLR,0.00,VWS V14.01,2013-05-02 05:07:00,
2013-05-02 01:13:00,51.7,49.8,30.38,East,90,9.0,13.0,93,0.00,,CLR,0.00,VWS V14.01,2013-05-02 05:13:00,
2013-05-02 01:18:00,51.5,49.3,30.39,East,87,10.0,11.0,92,0.00,,CLR,0.00,VWS V14.01,2013-05-02 05:18:00,
2013-05-02 01:23:00,51.3,49.1,30.39,ENE,75,11.0,13.0,92,0.00,,CLR,0.00,VWS V14.01,2013-05-02 05:23:00,
2013-05-02 01:28:00,51.1,48.9,30.38,East,88,11.0,13.0,92,0.00,,CLR,0.00,VWS V14.01,2013-05-02 05:28:00,
2013-05-02 01:33:00,50.9,48.7,30.38,East,87,6.0,13.0,92,0.00,,CLR,0.00,VWS V14.01,2013-05-02 05:33:00,
2013-05-02 01:38:00,50.8,48.8,30.38,East,79,8.0,11.0,93,0.00,,CLR,0.00,VWS V14.01,2013-05-02 05:38:00,
2013-05-02 01:43:00,50.8,48.8,30.38,East,93,9.0,11.0,93,0.00,,CLR,0.00,VWS V14.01,2013-05-02 05:43:00,
2013-05-02 01:48:00,50.6,48.4,30.38,ENE,78,10.0,10.0,92,0.00,,CLR,0.00,VWS V14.01,2013-05-02 05:48:00,
2013-05-02 01:53:00,50.7,48.8,30.38,East,85,10.0,11.0,93,0.00,,CLR,0.00,VWS V14.01,2013-05-02 05:53:00,
2013-05-02 01:58:00,50.6,48.7,30.38,East,81,9.0,10.0,93,0.00,,CLR,0.00,VWS V14.01,2013-05-02 05:58:00,
2013-05-02 02:03:00,50.5,48.6,30.38,ENE,78,6.0,10.0,93,0.00,,CLR,0.00,VWS V14.01,2013-05-02 06:03:00,
2013-05-02 02:08:00,50.5,48.6,30.38,East,91,8.0,11.0,93,0.00,,CLR,0.00,VWS V14.01,2013-05-02 06:08:00,
2013-05-02 02:13:00,50.5,48.6,30.38,ENE,72,8.0,12.0,93,0.00,,CLR,0.00,VWS V14.01,2013-05-02 06:13:00,
2013-05-02 02:18:00,50.4,48.5,30.37,East,96,9.0,11.0,93,0.00,,CLR,0.00,VWS V14.01,2013-05-02 06:18:00,
2013-05-02 02:23:00,50.4,48.7,30.37,East,81,10.0,12.0,94,0.00,,CLR,0.00,VWS V14.01,2013-05-02 06:23:00,
2013-05-02 02:28:00,50.4,48.7,30.37,East,82,11.0,12.0,94,0.00,,CLR,0.00,VWS V14.01,2013-05-02 06:28:00,
2013-05-02 02:33:00,50.2,48.5,30.37,ENE,66,9.0,12.0,94,0.00,,CLR,0.00,VWS V14.01,2013-05-02 06:33:00,
2013-05-02 02:38:00,50.1,48.4,30.37,East,87,8.0,12.0,94,0.00,,CLR,0.00,VWS V14.01,2013-05-02 06:38:00,
2013-05-02 02:43:00,50.3,48.9,30.36,ENE,71,10.0,13.0,95,0.00,,CLR,0.00,VWS V14.01,2013-05-02 06:43:00,
2013-05-02 02:48:00,50.3,48.9,30.36,ENE,78,9.0,14.0,95,0.00,,CLR,0.00,VWS V14.01,2013-05-02 06:48:00,
2013-05-02 02:53:00,50.2,48.5,30.36,ENE,68,10.0,13.0,94,0.00,,,0.00,VWS V14.01,2013-05-02 06:53:00,
2013-05-02 02:58:00,50.2,48.8,30.36,NE,55,11.0,15.0,95,0.00,,,0.00,VWS V14.01,2013-05-02 06:58:00,
2013-05-02 03:03:00,49.9,48.2,30.36,East,84,13.0,15.0,94,0.00,,,0.00,VWS V14.01,2013-05-02 07:03:00,
2013-05-02 03:08:00,49.8,48.2,30.36,ENE,71,9.0,17.0,94,0.00,,,0.00,VWS V14.01,2013-05-02 07:08:00,
2013-05-02 03:13:00,49.6,48.2,30.36,ENE,66,13.0,14.0,95,0.00,,,0.00,VWS V14.01,2013-05-02 07:13:00,
2013-05-02 03:18:00,49.5,47.8,30.36,ENE,67,10.0,14.0,94,0.00,,,0.00,VWS V14.01,2013-05-02 07:18:00,
2013-05-02 03:24:00,49.2,47.8,30.36,ENE,71,10.0,13.0,95,0.00,,,0.00,VWS V14.01,2013-05-02 07:24:00,
2013-05-02 03:29:00,49.0,47.6,30.36,ENE,69,11.0,11.0,95,0.00,,,0.00,VWS V14.01,2013-05-02 07:29:00,
2013-05-02 03:34:00,49.0,47.6,30.36,ENE,71,9.0,11.0,95,0.00,,,0.00,VWS V14.01,2013-05-02 07:34:00,
2013-05-02 03:39:00,49.1,47.7,30.37,ENE,73,7.0,12.0,95,0.00,,,0.00,VWS V14.01,2013-05-02 07:39:00,
2013-05-02 03:44:00,49.1,48.0,30.37,ENE,69,12.0,12.0,96,0.00,,,0.00,VWS V14.01,2013-05-02 07:44:00,
2013-05-02 03:49:00,49.1,48.0,30.37,ENE,74,10.0,13.0,96,0.00,,,0.00,VWS V14.01,2013-05-02 07:49:00,
2013-05-02 03:54:00,49.4,48.3,30.36,ENE,61,10.0,11.0,96,0.00,,,0.00,VWS V14.01,2013-05-02 07:54:00,
2013-05-02 03:59:00,49.0,47.9,30.36,ENE,67,8.0,10.0,96,0.00,,,0.00,VWS V14.01,2013-05-02 07:59:00,
2013-05-02 04:04:00,48.9,47.8,30.36,ENE,73,7.0,10.0,96,0.00,,,0.00,VWS V14.01,2013-05-02 08:04:00,
2013-05-02 04:09:00,49.2,48.4,30.36,ENE,63,7.0,12.0,97,0.00,,,0.00,VWS V14.01,2013-05-02 08:09:00,
2013-05-02 04:14:00,49.1,48.0,30.37,East,88,5.0,9.0,96,0.00,,OVC007,0.00,VWS V14.01,2013-05-02 08:14:00,
2013-05-02 04:19:00,49.0,47.9,30.37,ENE,68,9.0,11.0,96,0.00,,OVC007,0.00,VWS V14.01,2013-05-02 08:19:00,
2013-05-02 04:24:00,49.0,47.9,30.36,ENE,76,7.0,7.0,96,0.00,,OVC007,0.00,VWS V14.01,2013-05-02 08:24:00,
2013-05-02 04:29:00,49.0,47.9,30.37,ENE,69,5.0,10.0,96,0.00,,OVC007,0.00,VWS V14.01,2013-05-02 08:29:00,
2013-05-02 04:34:00,49.3,48.2,30.37,ENE,76,6.0,10.0,96,0.00,,OVC007,0.00,VWS V14.01,2013-05-02 08:34:00,
2013-05-02 04:39:00,49.2,48.1,30.37,ENE,73,11.0,11.0,96,0.00,,OVC007,0.00,VWS V14.01,2013-05-02 08:39:00,
2013-05-02 04:44:00,49.1,48.0,30.37,ENE,74,8.0,11.0,96,0.00,,OVC007,0.00,VWS V14.01,2013-05-02 08:44:00,
2013-05-02 04:49:00,49.1,48.0,30.37,NE,53,4.0,7.0,96,0.00,,OVC007,0.00,VWS V14.01,2013-05-02 08:49:00,
2013-05-02 04:54:00,48.9,47.8,30.36,East,90,5.0,5.0,96,0.00,,OVC007,0.00,VWS V14.01,2013-05-02 08:54:00,
2013-05-02 04:59:00,48.9,47.8,30.37,ENE,76,5.0,10.0,96,0.00,,OVC007,0.00,VWS V14.01,2013-05-02 08:59:00,
2013-05-02 05:04:00,48.9,47.8,30.37,ENE,73,6.0,8.0,96,0.00,,OVC007,0.00,VWS V14.01,2013-05-02 09:04:00,
2013-05-02 05:10:00,49.1,48.0,30.36,ENE,69,7.0,10.0,96,0.00,,OVC007,0.00,VWS V14.01,2013-05-02 09:10:00,
2013-05-02 05:15:00,49.2,48.1,30.36,ENE,76,7.0,11.0,96,0.00,,OVC007,0.00,VWS V14.01,2013-05-02 09:15:00,
2013-05-02 05:20:00,49.3,48.2,30.37,East,90,5.0,9.0,96,0.00,,OVC007,0.00,VWS V14.01,2013-05-02 09:20:00,
2013-05-02 05:25:00,49.2,48.1,30.37,East,82,6.0,9.0,96,0.00,,OVC007,0.00,VWS V14.01,2013-05-02 09:25:00,
2013-05-02 05:30:00,49.2,48.1,30.37,ENE,74,4.0,5.0,96,0.00,,OVC007,0.00,VWS V14.01,2013-05-02 09:30:00,
2013-05-02 05:35:00,49.1,48.0,30.37,East,86,9.0,9.0,96,0.00,,OVC007,0.00,VWS V14.01,2013-05-02 09:35:00,
2013-05-02 05:40:00,49.4,48.3,30.37,ENE,75,7.0,7.0,96,0.00,,OVC007,0.00,VWS V14.01,2013-05-02 09:40:00,
2013-05-02 05:45:00,49.5,48.4,30.37,East,94,5.0,7.0,96,0.00,,OVC007,0.00,VWS V14.01,2013-05-02 09:45:00,
2013-05-02 05:50:00,49.3,48.2,30.37,ESE,121,7.0,10.0,96,0.00,,OVC007,0.00,VWS V14.01,2013-05-02 09:50:00,
2013-05-02 05:55:00,49.1,48.0,30.37,ESE,115,4.0,8.0,96,0.00,,OVC007,0.00,VWS V14.01,2013-05-02 09:55:00,
2013-05-02 06:00:00,49.2,48.1,30.37,ESE,111,10.0,11.0,96,0.00,,OVC007,0.00,VWS V14.01,2013-05-02 10:00:00,
2013-05-02 06:05:00,49.1,48.0,30.38,ESE,113,2.0,10.0,96,0.00,,OVC007,0.00,VWS V14.01,2013-05-02 10:05:00,
2013-05-02 06:10:00,49.0,47.9,30.38,ESE,117,8.0,10.0,96,0.00,,OVC007,0.00,VWS V14.01,2013-05-02 10:10:00,
2013-05-02 06:15:00,49.0,47.9,30.38,ESE,111,6.0,9.0,96,0.00,,OVC007,0.00,VWS V14.01,2013-05-02 10:15:00,
2013-05-02 06:20:00,49.0,47.9,30.38,SE,140,7.0,10.0,96,0.00,,OVC007,0.00,VWS V14.01,2013-05-02 10:20:00,
2013-05-02 06:25:00,49.0,47.9,30.38,SSE,148,3.0,5.0,96,0.00,,OVC007,0.00,VWS V14.01,2013-05-02 10:25:00,
2013-05-02 06:30:00,48.9,47.8,30.38,SE,126,5.0,5.0,96,0.00,,OVC007,0.00,VWS V14.01,2013-05-02 10:30:00,
2013-05-02 06:35:00,49.0,47.9,30.38,SE,125,0.0,6.0,96,0.00,,OVC007,0.00,VWS V14.01,2013-05-02 10:35:00,
2013-05-02 06:40:00,49.2,48.1,30.38,East,93,0.0,4.0,96,0.00,,OVC007,0.00,VWS V14.01,2013-05-02 10:40:00,
2013-05-02 06:45:00,49.6,48.8,30.38,ENE,68,2.0,5.0,97,0.00,,OVC007,0.00,VWS V14.01,2013-05-02 10:45:00,
2013-05-02 06:50:00,49.6,48.5,30.39,ENE,78,4.0,6.0,96,0.00,,,0.00,VWS V14.01,2013-05-02 10:50:00,
2013-05-02 06:55:00,49.6,48.5,30.38,ENE,68,0.0,0.0,96,0.00,,,0.00,VWS V14.01,2013-05-02 10:55:00,
2013-05-02 07:00:00,49.7,48.6,30.38,ENE,70,0.0,4.0,96,0.00,,,0.00,VWS V14.01,2013-05-02 11:00:00,
2013-05-02 07:05:00,49.8,48.7,30.38,ENE,71,0.0,3.0,96,0.00,,,0.00,VWS V14.01,2013-05-02 11:05:00,
2013-05-02 07:10:00,50.0,48.9,30.39,ENE,75,6.0,6.0,96,0.00,,,0.00,VWS V14.01,2013-05-02 11:10:00,
2013-05-02 07:15:00,50.0,48.9,30.39,ENE,77,0.0,0.0,96,0.00,,,0.00,VWS V14.01,2013-05-02 11:15:00,
2013-05-02 07:20:00,50.0,48.6,30.39,East,80,6.0,6.0,95,0.00,,,0.00,VWS V14.01,2013-05-02 11:20:00,
2013-05-02 07:25:00,50.3,48.9,30.39,NE,53,4.0,7.0,95,0.00,,,0.00,VWS V14.01,2013-05-02 11:25:00,
2013-05-02 07:30:00,50.7,49.6,30.39,ENE,73,10.0,11.0,96,0.00,,,0.00,VWS V14.01,2013-05-02 11:30:00,
2013-05-02 07:35:00,50.6,49.2,30.39,East,79,5.0,9.0,95,0.00,,,0.00,VWS V14.01,2013-05-02 11:35:00,
2013-05-02 07:40:00,50.8,49.4,30.39,NE,48,4.0,7.0,95,0.00,,OVC008,0.00,VWS V14.01,2013-05-02 11:40:00,
2013-05-02 07:45:00,50.8,49.1,30.40,ENE,59,2.0,5.0,94,0.00,,OVC008,0.00,VWS V14.01,2013-05-02 11:45:00,
2013-05-02 07:50:00,50.9,49.2,30.40,ENE,66,4.0,6.0,94,0.00,,OVC008,0.00,VWS V14.01,2013-05-02 11:50:00,
2013-05-02 07:55:00,51.2,49.5,30.40,NE,50,4.0,7.0,94,0.00,,OVC008,0.00,VWS V14.01,2013-05-02 11:55:00,
2013-05-02 08:01:00,51.3,49.6,30.39,ENE,60,6.0,9.0,94,0.00,,OVC008,0.00,VWS V14.01,2013-05-02 12:01:00,
2013-05-02 08:06:00,51.5,49.5,30.39,ENE,57,5.0,7.0,93,0.00,,OVC008,0.00,VWS V14.01,2013-05-02 12:06:00,
2013-05-02 08:11:00,51.7,49.8,30.39,NE,38,6.0,10.0,93,0.00,,OVC008,0.00,VWS V14.01,2013-05-02 12:11:00,
2013-05-02 08:16:00,51.9,49.7,30.40,ENE,58,6.0,7.0,92,0.00,,OVC008,0.00,VWS V14.01,2013-05-02 12:16:00,
2013-05-02 08:21:00,51.8,49.3,30.40,NE,56,5.0,9.0,91,0.00,,OVC008,0.00,VWS V14.01,2013-05-02 12:21:00,
2013-05-02 08:26:00,52.0,49.5,30.40,NE,55,6.0,9.0,91,0.00,,OVC008,0.00,VWS V14.01,2013-05-02 12:26:00,
2013-05-02 08:31:00,52.2,49.7,30.40,NE,51,5.0,9.0,91,0.00,,OVC008,0.00,VWS V14.01,2013-05-02 12:31:00,
2013-05-02 08:36:00,52.4,49.6,30.40,NE,53,8.0,10.0,90,0.00,,OVC008,0.00,VWS V14.01,2013-05-02 12:36:00,
2013-05-02 08:41:00,52.6,50.0,30.40,NE,53,4.0,7.0,91,0.00,,OVC008,0.00,VWS V14.01,2013-05-02 12:41:00,
2013-05-02 08:46:00,52.6,50.0,30.40,NE,54,7.0,11.0,91,0.00,,OVC008,0.00,VWS V14.01,2013-05-02 12:46:00,
2013-05-02 08:51:00,52.6,50.0,30.40,NE,55,7.0,7.0,91,0.00,,OVC008,0.00,VWS V14.01,2013-05-02 12:51:00,
2013-05-02 08:56:00,52.6,50.0,30.40,NE,55,7.0,7.0,91,0.00,,OVC008,0.00,VWS V14.01,2013-05-02 12:56:00,
2013-05-02 09:01:00,52.6,49.8,30.40,ENE,71,2.0,5.0,90,0.00,,OVC008,0.00,VWS V14.01,2013-05-02 13:01:00,
2013-05-02 09:06:00,52.6,49.8,30.40,NE,48,4.0,6.0,90,0.00,,OVC007,0.00,VWS V14.01,2013-05-02 13:06:00,
2013-05-02 09:11:00,52.7,50.2,30.40,ENE,58,4.0,6.0,91,0.00,,OVC007,0.00,VWS V14.01,2013-05-02 13:11:00,
2013-05-02 09:16:00,52.7,49.8,30.40,ENE,71,5.0,7.0,90,0.00,,OVC007,0.00,VWS V14.01,2013-05-02 13:16:00,
2013-05-02 09:21:00,52.7,49.8,30.40,ENE,61,6.0,9.0,90,0.00,,OVC007,0.00,VWS V14.01,2013-05-02 13:21:00,
2013-05-02 09:26:00,52.8,50.0,30.41,NE,46,6.0,7.0,90,0.00,,OVC007,0.00,VWS V14.01,2013-05-02 13:26:00,
2013-05-02 09:31:00,53.0,49.8,30.41,ENE,69,3.0,7.0,89,0.00,,OVC007,0.00,VWS V14.01,2013-05-02 13:31:00,
2013-05-02 09:36:00,53.0,49.5,30.41,NE,38,5.0,9.0,88,0.00,,OVC007,0.00,VWS V14.01,2013-05-02 13:36:00,
2013-05-02 09:41:00,53.2,49.7,30.41,ENE,61,4.0,7.0,88,0.00,,OVC007,0.00,VWS V14.01,2013-05-02 13:41:00,
2013-05-02 09:46:00,53.3,49.8,30.41,NE,40,5.0,9.0,88,0.00,,OVC007,0.00,VWS V14.01,2013-05-02 13:46:00,
2013-05-02 09:51:00,53.4,49.9,30.41,ENE,71,5.0,7.0,88,0.00,,OVC007,0.00,VWS V14.01,2013-05-02 13:51:00,
2013-05-02 09:56:00,53.3,49.5,30.41,NE,49,5.0,6.0,87,0.00,,OVC007,0.00,VWS V14.01,2013-05-02 13:56:00,
2013-05-02 10:01:00,53.3,49.8,30.41,NE,38,2.0,4.0,88,0.00,,OVC007,0.00,VWS V14.01,2013-05-02 14:01:00,
2013-05-02 10:06:00,53.4,49.6,30.41,NE,48,5.0,5.0,87,0.00,,OVC007,0.00,VWS V14.01,2013-05-02 14:06:00,
2013-05-02 10:11:00,53.6,49.8,30.41,ENE,66,5.0,7.0,87,0.00,,OVC007,0.00,VWS V14.01,2013-05-02 14:11:00,
2013-05-02 10:16:00,53.5,49.7,30.41,NNE,32,7.0,7.0,87,0.00,,OVC007,0.00,VWS V14.01,2013-05-02 14:16:00,
2013-05-02 10:21:00,53.5,49.4,30.41,NE,50,5.0,5.0,86,0.00,,OVC007,0.00,VWS V14.01,2013-05-02 14:21:00,
2013-05-02 10:26:00,53.5,50.0,30.41,ENE,67,4.0,7.0,88,0.00,,OVC007,0.00,VWS V14.01,2013-05-02 14:26:00,
2013-05-02 10:31:00,53.5,50.0,30.41,ENE,70,4.0,7.0,88,0.00,,OVC007,0.00,VWS V14.01,2013-05-02 14:31:00,
2013-05-02 10:36:00,53.6,50.1,30.41,NE,56,3.0,5.0,88,0.00,,OVC007,0.00,VWS V14.01,2013-05-02 14:36:00,
2013-05-02 10:41:00,53.7,49.9,30.41,ENE,65,1.0,6.0,87,0.00,,OVC010,0.00,VWS V14.01,2013-05-02 14:41:00,
2013-05-02 10:46:00,53.9,50.4,30.41,ENE,71,0.0,0.0,88,0.00,,OVC010,0.00,VWS V14.01,2013-05-02 14:46:00,
2013-05-02 10:51:00,54.0,50.2,30.41,NE,50,0.0,5.0,87,0.00,,OVC010,0.00,VWS V14.01,2013-05-02 14:51:00,
2013-05-02 10:56:00,54.3,50.8,30.41,NE,48,0.0,0.0,88,0.00,,OVC010,0.00,VWS V14.01,2013-05-02 14:56:00,
2013-05-02 11:01:00,54.5,50.7,30.41,NE,48,0.0,0.0,87,0.00,,OVC010,0.00,VWS V14.01,2013-05-02 15:01:00,
2013-05-02 11:06:00,54.6,50.5,30.41,ENE,77,0.0,5.0,86,0.00,,OVC010,0.00,VWS V14.01,2013-05-02 15:06:00,
2013-05-02 11:11:00,54.9,51.1,30.41,ENE,77,0.0,0.0,87,0.00,,OVC010,0.00,VWS V14.01,2013-05-02 15:11:00,
2013-05-02 11:16:00,55.0,50.9,30.41,NNE,32,0.0,1.0,86,0.00,,OVC010,0.00,VWS V14.01,2013-05-02 15:16:00,
2013-05-02 11:21:00,55.1,51.0,30.41,ENE,61,0.0,0.0,86,0.00,,OVC010,0.00,VWS V14.01,2013-05-02 15:21:00,
2013-05-02 11:26:00,55.2,51.1,30.41,NE,55,0.0,0.0,86,0.00,,OVC010,0.00,VWS V14.01,2013-05-02 15:26:00,
2013-05-02 11:31:00,55.0,50.6,30.41,East,80,0.0,0.0,85,0.00,,OVC010,0.00,VWS V14.01,2013-05-02 15:31:00,
2013-05-02 11:37:00,55.2,51.4,30.41,NE,38,0.0,0.0,87,0.00,,OVC010,0.00,VWS V14.01,2013-05-02 15:37:00,
2013-05-02 11:42:00,55.6,51.5,30.41,NE,44,1.0,4.0,86,0.00,,OVC012,0.00,VWS V14.01,2013-05-02 15:42:00,
2013-05-02 11:47:00,56.2,52.7,30.41,NNE,20,5.0,5.0,88,0.00,,OVC012,0.00,VWS V14.01,2013-05-02 15:47:00,
2013-05-02 11:52:00,56.4,52.3,30.40,NNE,15,5.0,5.0,86,0.00,,OVC012,0.00,VWS V14.01,2013-05-02 15:52:00,
2013-05-02 11:57:00,56.4,52.3,30.40,NNE,28,1.0,5.0,86,0.00,,OVC012,0.00,VWS V14.01,2013-05-02 15:57:00,
2013-05-02 12:02:00,56.8,53.3,30.40,NNE,28,2.0,4.0,88,0.00,,OVC012,0.00,VWS V14.01,2013-05-02 16:02:00,
2013-05-02 12:07:00,56.7,52.2,30.40,NNE,29,3.0,6.0,85,0.00,,OVC012,0.00,VWS V14.01,2013-05-02 16:07:00,
2013-05-02 12:12:00,56.9,52.8,30.40,NNE,13,4.0,5.0,86,0.00,,OVC012,0.00,VWS V14.01,2013-05-02 16:12:00,
2013-05-02 12:17:00,57.1,53.0,30.40,NNE,15,0.0,3.0,86,0.00,,OVC012,0.00,VWS V14.01,2013-05-02 16:17:00,
2013-05-02 12:22:00,57.5,53.0,30.39,North,359,3.0,5.0,85,0.00,,OVC012,0.00,VWS V14.01,2013-05-02 16:22:00,
2013-05-02 12:27:00,57.5,53.0,30.39,NNW,346,3.0,5.0,85,0.00,,OVC012,0.00,VWS V14.01,2013-05-02 16:27:00,
2013-05-02 12:32:00,57.3,52.2,30.39,NNW,338,4.0,4.0,83,0.00,,OVC012,0.00,VWS V14.01,2013-05-02 16:32:00,
2013-05-02 12:37:00,57.2,52.1,30.39,North,5,0.0,3.0,83,0.00,,OVC012,0.00,VWS V14.01,2013-05-02 16:37:00,
2013-05-02 12:42:00,57.4,52.6,30.39,North,354,2.0,2.0,84,0.00,,OVC027,0.00,VWS V14.01,2013-05-02 16:42:00,
2013-05-02 12:47:00,57.3,52.2,30.39,NNW,342,0.0,0.0,83,0.00,,OVC027,0.00,VWS V14.01,2013-05-02 16:47:00,
2013-05-02 12:52:00,57.7,53.2,30.39,NNW,335,0.0,5.0,85,0.00,,OVC027,0.00,VWS V14.01,2013-05-02 16:52:00,
2013-05-02 12:57:00,58.0,52.9,30.39,NW,326,1.0,1.0,83,0.00,,OVC027,0.00,VWS V14.01,2013-05-02 16:57:00,
2013-05-02 13:02:00,58.3,53.2,30.39,North,1,0.0,0.0,83,0.00,,OVC027,0.00,VWS V14.01,2013-05-02 17:02:00,
2013-05-02 13:07:00,58.5,53.4,30.39,North,1,0.0,0.0,83,0.00,,OVC027,0.00,VWS V14.01,2013-05-02 17:07:00,
2013-05-02 13:12:00,58.9,53.4,30.38,NW,312,0.0,0.0,82,0.00,,OVC027,0.00,VWS V14.01,2013-05-02 17:12:00,
2013-05-02 13:17:00,59.5,54.0,30.38,North,5,0.0,0.0,82,0.00,,OVC027,0.00,VWS V14.01,2013-05-02 17:17:00,
2013-05-02 13:22:00,59.8,54.0,30.38,NNE,24,0.0,0.0,81,0.00,,OVC027,0.00,VWS V14.01,2013-05-02 17:22:00,
2013-05-02 13:27:00,60.1,53.9,30.38,NNE,17,1.0,2.0,80,0.00,,OVC027,0.00,VWS V14.01,2013-05-02 17:27:00,
2013-05-02 13:32:00,60.4,54.2,30.38,West,280,0.0,0.0,80,0.00,,OVC027,0.00,VWS V14.01,2013-05-02 17:32:00,
2013-05-02 13:37:00,60.6,54.1,30.38,NW,322,2.0,3.0,79,0.00,,OVC027,0.00,VWS V14.01,2013-05-02 17:37:00,
2013-05-02 13:42:00,60.4,53.5,30.38,NNW,347,0.0,5.0,78,0.00,,BKN027,0.00,VWS V14.01,2013-05-02 17:42:00,
2013-05-02 13:47:00,60.1,53.9,30.38,NNW,345,2.0,3.0,80,0.00,,BKN027,0.00,VWS V14.01,2013-05-02 17:47:00,
2013-05-02 13:52:00,60.2,54.0,30.37,NNW,337,3.0,6.0,80,0.00,,BKN027,0.00,VWS V14.01,2013-05-02 17:52:00,
2013-05-02 13:57:00,60.3,54.5,30.37,North,358,7.0,9.0,81,0.00,,BKN027,0.00,VWS V14.01,2013-05-02 17:57:00,
2013-05-02 14:02:00,60.2,55.0,30.37,NNW,337,6.0,9.0,83,0.00,,BKN027,0.00,VWS V14.01,2013-05-02 18:02:00,
2013-05-02 14:07:00,60.1,54.6,30.37,NNW,331,7.0,7.0,82,0.00,,BKN027,0.00,VWS V14.01,2013-05-02 18:07:00,
2013-05-02 14:12:00,59.9,54.1,30.37,NNW,347,4.0,7.0,81,0.00,,BKN027,0.00,VWS V14.01,2013-05-02 18:12:00,
2013-05-02 14:17:00,60.1,54.6,30.37,NNW,332,4.0,11.0,82,0.00,,BKN027,0.00,VWS V14.01,2013-05-02 18:17:00,
2013-05-02 14:22:00,60.0,54.2,30.37,West,279,9.0,10.0,81,0.00,,BKN027,0.00,VWS V14.01,2013-05-02 18:22:00,
2013-05-02 14:27:00,59.7,53.9,30.37,NW,307,6.0,11.0,81,0.00,,BKN027,0.00,VWS V14.01,2013-05-02 18:27:00,
2013-05-02 14:32:00,59.5,53.7,30.37,West,281,5.0,12.0,81,0.00,,BKN027,0.00,VWS V14.01,2013-05-02 18:32:00,
2013-05-02 14:37:00,59.3,53.8,30.37,WNW,300,5.0,13.0,82,0.00,,BKN027,0.00,VWS V14.01,2013-05-02 18:37:00,
2013-05-02 14:42:00,59.1,53.6,30.37,West,268,7.0,12.0,82,0.00,,SCT035,0.00,VWS V14.01,2013-05-02 18:42:00,
2013-05-02 14:47:00,59.1,53.6,30.36,WNW,283,9.0,11.0,82,0.00,,SCT035,0.00,VWS V14.01,2013-05-02 18:47:00,
2013-05-02 14:52:00,59.2,53.7,30.36,NNW,335,5.0,10.0,82,0.00,,SCT035,0.00,VWS V14.01,2013-05-02 18:52:00,
2013-05-02 14:57:00,59.2,53.4,30.36,NW,326,4.0,11.0,81,0.00,,SCT035,0.00,VWS V14.01,2013-05-02 18:57:00,
2013-05-02 15:02:00,59.5,54.0,30.36,WNW,297,6.0,9.0,82,0.00,,SCT035,0.00,VWS V14.01,2013-05-02 19:02:00,
2013-05-02 15:07:00,59.6,53.8,30.36,NW,317,8.0,9.0,81,0.00,,SCT035,0.00,VWS V14.01,2013-05-02 19:07:00,
2013-05-02 15:12:00,59.7,54.9,30.36,NW,317,9.0,12.0,84,0.00,,SCT035,0.00,VWS V14.01,2013-05-02 19:12:00,
2013-05-02 15:17:00,60.0,54.5,30.35,West,279,10.0,11.0,82,0.00,,SCT035,0.00,VWS V14.01,2013-05-02 19:17:00,
2013-05-02 15:23:00,59.8,53.6,30.35,West,265,11.0,11.0,80,0.00,,SCT035,0.00,VWS V14.01,2013-05-02 19:23:00,
2013-05-02 15:28:00,59.9,54.1,30.35,West,260,6.0,8.0,81,0.00,,SCT035,0.00,VWS V14.01,2013-05-02 19:28:00,
2013-05-02 15:33:00,59.9,53.7,30.35,West,265,3.0,10.0,80,0.00,,SCT035,0.00,VWS V14.01,2013-05-02 19:33:00,
2013-05-02 15:38:00,59.8,54.0,30.35,NNW,338,6.0,9.0,81,0.00,,SCT035,0.00,VWS V14.01,2013-05-02 19:38:00,
2013-05-02 15:43:00,60.0,53.8,30.35,NW,321,5.0,9.0,80,0.00,,SCT039,0.00,VWS V14.01,2013-05-02 19:43:00,
2013-05-02 15:48:00,60.1,53.9,30.34,WNW,296,5.0,10.0,80,0.00,,SCT039,0.00,VWS V14.01,2013-05-02 19:48:00,
2013-05-02 15:53:00,60.2,54.0,30.34,NW,323,5.0,7.0,80,0.00,,SCT039,0.00,VWS V14.01,2013-05-02 19:53:00,
2013-05-02 15:58:00,60.6,54.4,30.34,NW,322,4.0,6.0,80,0.00,,SCT039,0.00,VWS V14.01,2013-05-02 19:58:00,
2013-05-02 16:03:00,60.8,54.3,30.34,NW,307,7.0,9.0,79,0.00,,SCT039,0.00,VWS V14.01,2013-05-02 20:03:00,
2013-05-02 16:08:00,61.0,54.5,30.34,West,280,4.0,7.0,79,0.00,,SCT039,0.00,VWS V14.01,2013-05-02 20:08:00,
2013-05-02 16:13:00,61.1,54.5,30.33,North,9,1.0,7.0,79,0.00,,SCT039,0.00,VWS V14.01,2013-05-02 20:13:00,
2013-05-02 16:18:00,61.2,54.6,30.33,West,281,5.0,6.0,79,0.00,,SCT039,0.00,VWS V14.01,2013-05-02 20:18:00,
2013-05-02 16:23:00,61.3,54.7,30.33,NW,321,2.0,6.0,79,0.00,,SCT039,0.00,VWS V14.01,2013-05-02 20:23:00,
2013-05-02 16:28:00,61.4,54.5,30.33,West,281,4.0,11.0,78,0.00,,SCT039,0.00,VWS V14.01,2013-05-02 20:28:00,
2013-05-02 16:33:00,61.6,55.0,30.33,WNW,302,0.0,7.0,79,0.00,,SCT039,0.00,VWS V14.01,2013-05-02 20:33:00,
2013-05-02 16:38:00,62.0,55.4,30.33,WNW,290,0.0,6.0,79,0.00,,SCT039,0.00,VWS V14.01,2013-05-02 20:38:00,
2013-05-02 16:43:00,62.2,54.9,30.32,NNW,327,5.0,8.0,77,0.00,,SCT039,0.00,VWS V14.01,2013-05-02 20:43:00,
2013-05-02 16:48:00,62.3,55.0,30.32,WNW,292,3.0,5.0,77,0.00,,SCT039,0.00,VWS V14.01,2013-05-02 20:48:00,
2013-05-02 16:53:00,62.5,55.2,30.32,NW,307,5.0,6.0,77,0.00,,SKC,0.00,VWS V14.01,2013-05-02 20:53:00,
2013-05-02 16:58:00,62.8,54.8,30.32,WNW,283,0.0,5.0,75,0.00,,SKC,0.00,VWS V14.01,2013-05-02 20:58:00,
2013-05-02 17:03:00,63.1,55.4,30.32,NW,317,0.0,2.0,76,0.00,,SKC,0.00,VWS V14.01,2013-05-02 21:03:00,
2013-05-02 17:08:00,63.4,55.3,30.32,NW,317,0.0,6.0,75,0.00,,SKC,0.00,VWS V14.01,2013-05-02 21:08:00,
2013-05-02 17:13:00,63.6,55.2,30.32,WNW,288,0.0,1.0,74,0.00,,SKC,0.00,VWS V14.01,2013-05-02 21:13:00,
2013-05-02 17:18:00,63.7,54.9,30.32,West,279,0.0,0.0,73,0.00,,SKC,0.00,VWS V14.01,2013-05-02 21:18:00,
2013-05-02 17:23:00,63.9,53.1,30.32,NNW,336,0.0,0.0,68,0.00,,SKC,0.00,VWS V14.01,2013-05-02 21:23:00,
2013-05-02 17:28:00,64.0,52.4,30.32,North,350,0.0,0.0,66,0.00,,SKC,0.00,VWS V14.01,2013-05-02 21:28:00,
2013-05-02 17:33:00,64.3,53.1,30.31,North,350,0.0,0.0,67,0.00,,SKC,0.00,VWS V14.01,2013-05-02 21:33:00,
2013-05-02 17:38:00,64.4,53.2,30.31,East,91,9.0,11.0,67,0.00,,SKC,0.00,VWS V14.01,2013-05-02 21:38:00,
2013-05-02 17:43:00,64.7,51.4,30.31,East,92,10.0,13.0,62,0.00,,SKC,0.00,VWS V14.01,2013-05-02 21:43:00,
2013-05-02 17:48:00,64.9,51.6,30.31,East,94,11.0,13.0,62,0.00,,SKC,0.00,VWS V14.01,2013-05-02 21:48:00,
2013-05-02 17:53:00,64.9,50.2,30.31,East,100,10.0,12.0,59,0.00,,SKC,0.00,VWS V14.01,2013-05-02 21:53:00,
2013-05-02 17:58:00,65.0,51.7,30.31,East,100,7.0,11.0,62,0.00,,SKC,0.00,VWS V14.01,2013-05-02 21:58:00,
2013-05-02 18:03:00,64.9,52.0,30.30,East,100,10.0,11.0,63,0.00,,SKC,0.00,VWS V14.01,2013-05-02 22:03:00,
2013-05-02 18:08:00,64.9,51.6,30.30,ESE,103,12.0,12.0,62,0.00,,SKC,0.00,VWS V14.01,2013-05-02 22:08:00,
2013-05-02 18:13:00,64.7,50.5,30.30,East,98,11.0,13.0,60,0.00,,SKC,0.00,VWS V14.01,2013-05-02 22:13:00,
2013-05-02 18:18:00,64.6,50.0,30.30,East,97,13.0,15.0,59,0.00,,SKC,0.00,VWS V14.01,2013-05-02 22:18:00,
2013-05-02 18:23:00,64.5,50.3,30.30,East,86,11.0,14.0,60,0.00,,SKC,0.00,VWS V14.01,2013-05-02 22:23:00,
2013-05-02 18:28:00,64.5,51.6,30.30,East,84,12.0,13.0,63,0.00,,SKC,0.00,VWS V14.01,2013-05-02 22:28:00,
2013-05-02 18:33:00,64.4,51.1,30.30,East,92,12.0,13.0,62,0.00,,SKC,0.00,VWS V14.01,2013-05-02 22:33:00,
2013-05-02 18:38:00,64.4,50.7,30.30,East,80,10.0,14.0,61,0.00,,SKC,0.00,VWS V14.01,2013-05-02 22:38:00,
2013-05-02 18:43:00,64.3,51.0,30.30,East,86,11.0,12.0,62,0.00,,SKC,0.00,VWS V14.01,2013-05-02 22:43:00,
2013-05-02 18:49:00,64.3,51.0,30.30,East,89,11.0,11.0,62,0.00,,SKC,0.00,VWS V14.01,2013-05-02 22:49:00,
2013-05-02 18:54:00,64.2,51.8,30.30,East,87,8.0,11.0,64,0.00,,SKC,0.00,VWS V14.01,2013-05-02 22:54:00,
2013-05-02 18:59:00,64.1,52.5,30.29,East,86,8.0,10.0,66,0.00,,SKC,0.00,VWS V14.01,2013-05-02 22:59:00,
2013-05-02 19:04:00,64.0,52.4,30.30,East,90,9.0,11.0,66,0.00,,SKC,0.00,VWS V14.01,2013-05-02 23:04:00,
2013-05-02 19:09:00,63.8,51.4,30.29,East,93,9.0,10.0,64,0.00,,SKC,0.00,VWS V14.01,2013-05-02 23:09:00,
2013-05-02 19:14:00,63.8,51.8,30.29,East,96,11.0,11.0,65,0.00,,SKC,0.00,VWS V14.01,2013-05-02 23:14:00,
2013-05-02 19:19:00,63.6,51.2,30.29,East,94,9.0,11.0,64,0.00,,SKC,0.00,VWS V14.01,2013-05-02 23:19:00,
2013-05-02 19:24:00,63.5,50.3,30.29,East,100,9.0,11.0,62,0.00,,SKC,0.00,VWS V14.01,2013-05-02 23:24:00,
2013-05-02 19:29:00,63.4,51.4,30.29,ESE,103,8.0,11.0,65,0.00,,SKC,0.00,VWS V14.01,2013-05-02 23:29:00,
2013-05-02 19:34:00,63.1,50.7,30.29,East,86,10.0,11.0,64,0.00,,SKC,0.00,VWS V14.01,2013-05-02 23:34:00,
2013-05-02 19:39:00,63.1,51.2,30.29,East,90,9.0,11.0,65,0.00,,SKC,0.00,VWS V14.01,2013-05-02 23:39:00,
2013-05-02 19:44:00,63.0,51.9,30.29,East,90,11.0,12.0,67,0.00,,SKC,0.00,VWS V14.01,2013-05-02 23:44:00,
2013-05-02 19:49:00,62.9,49.3,30.29,East,84,12.0,12.0,61,0.00,,SKC,0.00,VWS V14.01,2013-05-02 23:49:00,
2013-05-02 19:54:00,62.9,48.8,30.29,East,87,13.0,13.0,60,0.00,,SKC,0.00,VWS V14.01,2013-05-02 23:54:00,
2013-05-02 19:59:00,62.9,49.7,30.29,East,88,12.0,12.0,62,0.00,,SKC,0.00,VWS V14.01,2013-05-02 23:59:00,
2013-05-02 20:04:00,62.7,50.4,30.29,East,84,9.0,10.0,64,0.00,,SKC,0.00,VWS V14.01,2013-05-03 00:04:00,
2013-05-02 20:09:00,62.5,49.8,30.29,East,88,9.0,11.0,63,0.00,,SKC,0.00,VWS V14.01,2013-05-03 00:09:00,
2013-05-02 20:14:00,62.4,50.5,30.29,East,88,7.0,10.0,65,0.00,,SKC,0.00,VWS V14.01,2013-05-03 00:14:00,
2013-05-02 20:19:00,62.2,49.9,30.29,East,85,6.0,10.0,64,0.00,,SKC,0.00,VWS V14.01,2013-05-03 00:19:00,
2013-05-02 20:24:00,62.1,50.6,30.29,East,90,8.0,10.0,66,0.00,,SKC,0.00,VWS V14.01,2013-05-03 00:24:00,
2013-05-02 20:29:00,61.8,49.1,30.29,East,96,10.0,11.0,63,0.00,,SKC,0.00,VWS V14.01,2013-05-03 00:29:00,
2013-05-02 20:34:00,61.7,49.0,30.29,East,91,11.0,11.0,63,0.00,,SKC,0.00,VWS V14.01,2013-05-03 00:34:00,
2013-05-02 20:39:00,61.5,49.6,30.29,East,96,10.0,11.0,65,0.00,,SKC,0.00,VWS V14.01,2013-05-03 00:39:00,
2013-05-02 20:44:00,61.4,51.2,30.29,East,91,10.0,10.0,69,0.00,,SKC,0.00,VWS V14.01,2013-05-03 00:44:00,
2013-05-02 20:49:00,61.2,51.0,30.29,East,98,10.0,12.0,69,0.00,,SKC,0.00,VWS V14.01,2013-05-03 00:49:00,
2013-05-02 20:54:00,60.9,47.4,30.29,East,92,14.0,14.0,61,0.00,,SKC,0.00,VWS V14.01,2013-05-03 00:54:00,
2013-05-02 20:59:00,60.8,48.6,30.29,East,88,13.0,13.0,64,0.00,,SKC,0.00,VWS V14.01,2013-05-03 00:59:00,
2013-05-02 21:04:00,60.6,49.2,30.29,East,98,9.0,13.0,66,0.00,,SKC,0.00,VWS V14.01,2013-05-03 01:04:00,
2013-05-02 21:09:00,60.4,49.4,30.30,East,96,12.0,13.0,67,0.00,,SKC,0.00,VWS V14.01,2013-05-03 01:09:00,
2013-05-02 21:14:00,60.2,49.2,30.30,East,88,10.0,13.0,67,0.00,,SKC,0.00,VWS V14.01,2013-05-03 01:14:00,
2013-05-02 21:19:00,60.0,49.8,30.30,East,90,11.0,13.0,69,0.00,,SKC,0.00,VWS V14.01,2013-05-03 01:19:00,
2013-05-02 21:24:00,59.6,49.8,30.30,East,100,10.0,12.0,70,0.00,,SKC,0.00,VWS V14.01,2013-05-03 01:24:00,
2013-05-02 21:29:00,59.3,49.1,30.30,East,98,11.0,13.0,69,0.00,,SKC,0.00,VWS V14.01,2013-05-03 01:29:00,
2013-05-02 21:34:00,58.9,48.8,30.30,ESE,114,11.0,14.0,69,0.00,,SKC,0.00,VWS V14.01,2013-05-03 01:34:00,
2013-05-02 21:39:00,58.5,48.8,30.30,East,94,10.0,12.0,70,0.00,,SKC,0.00,VWS V14.01,2013-05-03 01:39:00,
2013-05-02 21:44:00,58.3,48.6,30.30,East,92,9.0,12.0,70,0.00,,SKC,0.00,VWS V14.01,2013-05-03 01:44:00,
2013-05-02 21:49:00,58.2,48.5,30.30,ESE,110,8.0,12.0,70,0.00,,SKC,0.00,VWS V14.01,2013-05-03 01:49:00,
2013-05-02 21:54:00,57.9,48.2,30.30,East,96,11.0,13.0,70,0.00,,SKC,0.00,VWS V14.01,2013-05-03 01:54:00,
2013-05-02 21:59:00,57.7,48.0,30.30,East,94,10.0,14.0,70,0.00,,SKC,0.00,VWS V14.01,2013-05-03 01:59:00,
2013-05-02 22:04:00,57.5,48.2,30.30,East,97,9.0,12.0,71,0.00,,SKC,0.00,VWS V14.01,2013-05-03 02:04:00,
2013-05-02 22:09:00,57.4,48.8,30.30,East,100,9.0,12.0,73,0.00,,SKC,0.00,VWS V14.01,2013-05-03 02:09:00,
2013-05-02 22:14:00,57.3,49.1,30.30,ESE,103,11.0,12.0,74,0.00,,SKC,0.00,VWS V14.01,2013-05-03 02:14:00,
2013-05-02 22:19:00,57.2,49.4,30.30,ESE,108,11.0,12.0,75,0.00,,SKC,0.00,VWS V14.01,2013-05-03 02:19:00,
2013-05-02 22:24:00,57.0,49.5,30.31,ESE,105,10.0,12.0,76,0.00,,SKC,0.00,VWS V14.01,2013-05-03 02:24:00,
2013-05-02 22:29:00,56.8,49.0,30.31,ESE,109,10.0,12.0,75,0.00,,SKC,0.00,VWS V14.01,2013-05-03 02:29:00,
2013-05-02 22:34:00,56.6,49.5,30.30,ESE,116,10.0,11.0,77,0.00,,SKC,0.00,VWS V14.01,2013-05-03 02:34:00,
2013-05-02 22:39:00,56.4,48.9,30.30,ESE,115,10.0,12.0,76,0.00,,SKC,0.00,VWS V14.01,2013-05-03 02:39:00,
2013-05-02 22:44:00,56.3,49.5,30.30,ESE,113,10.0,13.0,78,0.00,,SKC,0.00,VWS V14.01,2013-05-03 02:44:00,
2013-05-02 22:49:00,56.3,49.5,30.30,ESE,117,12.0,12.0,78,0.00,,SKC,0.00,VWS V14.01,2013-05-03 02:49:00,
2013-05-02 22:54:00,56.3,49.9,30.30,ESE,109,13.0,14.0,79,0.00,,SKC,0.00,VWS V14.01,2013-05-03 02:54:00,
2013-05-02 22:59:00,56.2,50.1,30.29,ESE,114,14.0,14.0,80,0.00,,SKC,0.00,VWS V14.01,2013-05-03 02:59:00,
2013-05-02 23:04:00,56.1,50.4,30.29,ESE,117,8.0,14.0,81,0.00,,SKC,0.00,VWS V14.01,2013-05-03 03:04:00,
2013-05-02 23:09:00,56.1,50.4,30.29,ESE,115,10.0,13.0,81,0.00,,SKC,0.00,VWS V14.01,2013-05-03 03:09:00,
2013-05-02 23:15:00,56.1,51.0,30.29,ESE,117,12.0,13.0,83,0.00,,SKC,0.00,VWS V14.01,2013-05-03 03:15:00,
2013-05-02 23:20:00,56.0,50.9,30.29,ESE,104,15.0,15.0,83,0.00,,SKC,0.00,VWS V14.01,2013-05-03 03:20:00,
2013-05-02 23:25:00,56.0,51.2,30.29,SE,124,11.0,15.0,84,0.00,,SKC,0.00,VWS V14.01,2013-05-03 03:25:00,
2013-05-02 23:30:00,56.0,51.6,30.30,ESE,111,14.0,15.0,85,0.00,,SKC,0.00,VWS V14.01,2013-05-03 03:30:00,
2013-05-02 23:35:00,55.9,51.1,30.29,ESE,115,13.0,15.0,84,0.00,,SKC,0.00,VWS V14.01,2013-05-03 03:35:00,
2013-05-02 23:40:00,55.9,51.5,30.30,ESE,109,11.0,13.0,85,0.00,,CLR,0.00,VWS V14.01,2013-05-03 03:40:00,
2013-05-02 23:45:00,55.7,51.0,30.30,East,101,11.0,14.0,84,0.00,,CLR,0.00,VWS V14.01,2013-05-03 03:45:00,
2013-05-02 23:50:00,55.4,50.3,30.29,East,100,9.0,14.0,83,0.00,,CLR,0.00,VWS V14.01,2013-05-03 03:50:00,
2013-05-02 23:55:00,55.3,50.6,30.29,ESE,102,13.0,16.0,84,0.00,,CLR,0.00,VWS V14.01,2013-05-03 03:55:00,